createdAt,value
2023-01-09T00:00:31.078Z,96.29
2023-01-09T00:01:30.782Z,96.39
2023-01-09T00:02:30.989Z,96.08
2023-01-09T00:03:30.949Z,95.77
2023-01-09T00:04:30.991Z,95.87
2023-01-09T00:05:30.878Z,95.98
2023-01-09T00:06:30.897Z,96.08
2023-01-09T00:07:30.852Z,96.29
2023-01-09T00:08:30.735Z,96.19
2023-01-09T00:09:30.850Z,95.67
2023-01-09T00:10:30.682Z,96.03
2023-01-09T00:11:30.827Z,95.72
2023-01-09T00:12:30.612Z,95.15
2023-01-09T00:13:30.879Z,96.24
2023-01-09T00:14:30.620Z,96.34
2023-01-09T00:15:30.882Z,96.61
2023-01-09T00:16:30.640Z,95.12
2023-01-09T00:17:30.764Z,93.71
2023-01-09T00:18:30.661Z,94.70
2023-01-09T00:19:30.776Z,93.98
2023-01-09T00:20:30.633Z,93.56
2023-01-09T00:21:30.790Z,93.35
2023-01-09T00:22:30.611Z,92.94
2023-01-09T00:23:30.500Z,93.40
2023-01-09T00:24:30.787Z,93.71
2023-01-09T00:25:30.511Z,94.27
2023-01-09T00:26:30.631Z,95.00
2023-01-09T00:27:30.500Z,94.58
2023-01-09T00:28:30.632Z,94.89
2023-01-09T00:29:30.572Z,95.00
2023-01-09T00:30:30.617Z,95.51
2023-01-09T00:31:30.453Z,95.25
2023-01-09T00:32:30.638Z,95.67
2023-01-09T00:33:30.487Z,96.19
2023-01-09T00:34:30.693Z,96.29
2023-01-09T00:35:30.499Z,96.19
2023-01-09T00:36:30.532Z,95.77
2023-01-09T00:37:30.515Z,95.87
2023-01-09T00:38:30.349Z,95.77
2023-01-09T00:39:30.588Z,95.87
2023-01-09T00:40:30.330Z,96.34
2023-01-09T00:41:30.468Z,95.83
2023-01-09T00:42:30.270Z,95.83
2023-01-09T00:43:30.472Z,95.46
2023-01-09T00:44:30.321Z,96.39
2023-01-09T00:45:30.519Z,95.51
2023-01-09T00:46:30.300Z,95.72
2023-01-09T00:47:30.425Z,95.51
2023-01-09T00:48:30.315Z,94.89
2023-01-09T00:49:30.443Z,95.31
2023-01-09T00:50:30.420Z,94.48
2023-01-09T00:51:30.570Z,95.15
2023-01-09T00:52:30.319Z,96.29
2023-01-09T00:53:30.359Z,96.29
2023-01-09T00:54:30.296Z,95.51
2023-01-09T00:55:30.249Z,95.41
2023-01-09T00:56:30.331Z,95.46
2023-01-09T00:57:30.214Z,95.56
2023-01-09T00:58:30.495Z,95.93
2023-01-09T00:59:30.187Z,95.20
2023-01-09T01:00:30.391Z,94.27
2023-01-09T01:01:30.282Z,94.68
2023-01-09T01:02:30.468Z,94.95
2023-01-09T01:03:30.197Z,94.43
2023-01-09T01:04:30.237Z,93.96
2023-01-09T01:05:30.218Z,94.43
2023-01-09T01:06:30.327Z,94.48
2023-01-09T01:07:30.108Z,94.17
2023-01-09T01:08:30.239Z,95.10
2023-01-09T01:09:30.177Z,94.64
2023-01-09T01:10:29.950Z,94.33
2023-01-09T01:11:30.416Z,94.23
2023-01-09T01:12:30.003Z,94.02
2023-01-09T01:13:30.169Z,94.02
2023-01-09T01:14:29.938Z,94.43
2023-01-09T01:15:30.135Z,93.71
2023-01-09T01:16:30.144Z,93.40
2023-01-09T01:17:30.368Z,93.08
2023-01-09T01:18:29.991Z,93.71
2023-01-09T01:19:30.190Z,94.23
2023-01-09T01:20:30.159Z,93.29
2023-01-09T01:21:30.046Z,93.40
2023-01-09T01:22:29.989Z,92.82
2023-01-09T01:23:30.120Z,93.65
2023-01-09T01:24:30.021Z,94.63
2023-01-09T01:25:29.840Z,95.46
2023-01-09T01:26:29.969Z,94.84
2023-01-09T01:27:29.845Z,95.04
2023-01-09T01:28:29.986Z,95.62
2023-01-09T01:29:29.939Z,94.79
2023-01-09T01:30:30.089Z,95.10
2023-01-09T01:31:29.870Z,94.89
2023-01-09T01:32:29.970Z,94.37
2023-01-09T01:33:29.859Z,94.06
2023-01-09T01:34:30.030Z,94.58
2023-01-09T01:35:30.042Z,93.96
2023-01-09T01:36:30.042Z,95.00
2023-01-09T01:37:29.859Z,94.68
2023-01-09T01:38:29.900Z,94.02
2023-01-09T01:39:29.960Z,93.54
2023-01-09T01:40:29.725Z,93.54
2023-01-09T01:41:30.051Z,94.68
2023-01-09T01:42:29.709Z,94.17
2023-01-09T01:43:29.824Z,94.48
2023-01-09T01:44:29.892Z,94.06
2023-01-09T01:45:29.833Z,94.68
2023-01-09T01:46:29.862Z,94.37
2023-01-09T01:47:29.857Z,94.63
2023-01-09T01:48:29.724Z,94.73
2023-01-09T01:49:29.839Z,94.73
2023-01-09T01:50:29.840Z,94.63
2023-01-09T01:51:29.819Z,95.20
2023-01-09T01:52:29.677Z,94.63
2023-01-09T01:53:29.746Z,94.63
2023-01-09T01:54:29.800Z,95.25
2023-01-09T01:55:29.489Z,95.20
2023-01-09T01:56:29.724Z,94.48
2023-01-09T01:57:29.459Z,94.32
2023-01-09T01:58:29.840Z,94.73
2023-01-09T01:59:29.571Z,94.68
2023-01-09T02:00:29.718Z,94.53
2023-01-09T02:01:29.634Z,94.73
2023-01-09T02:02:29.725Z,95.15
2023-01-09T02:03:29.646Z,95.36
2023-01-09T02:04:29.719Z,95.31
2023-01-09T02:05:29.471Z,94.06
2023-01-09T02:06:29.650Z,93.80
2023-01-09T02:07:29.500Z,94.84
2023-01-09T02:08:29.600Z,95.29
2023-01-09T02:09:29.576Z,96.19
2023-01-09T02:10:29.413Z,95.56
2023-01-09T02:11:29.469Z,95.93
2023-01-09T02:12:29.390Z,94.37
2023-01-09T02:13:29.550Z,93.75
2023-01-09T02:14:29.428Z,94.95
2023-01-09T02:15:29.519Z,94.33
2023-01-09T02:16:29.438Z,92.78
2023-01-09T02:17:29.610Z,92.72
2023-01-09T02:18:29.420Z,93.54
2023-01-09T02:19:29.451Z,93.90
2023-01-09T02:20:29.419Z,94.63
2023-01-09T02:21:29.549Z,95.15
2023-01-09T02:22:29.403Z,95.19
2023-01-09T02:23:29.441Z,95.92
2023-01-09T02:24:29.378Z,96.81
2023-01-09T02:25:29.591Z,96.03
2023-01-09T02:26:29.390Z,95.00
2023-01-09T02:27:29.219Z,93.96
2023-01-09T02:28:29.451Z,94.27
2023-01-09T02:29:29.162Z,93.85
2023-01-09T02:30:29.349Z,94.32
2023-01-09T02:31:29.257Z,95.36
2023-01-09T02:32:29.310Z,94.63
2023-01-09T02:33:29.270Z,94.98
2023-01-09T02:34:29.315Z,95.54
2023-01-09T02:35:29.260Z,96.48
2023-01-09T02:36:29.359Z,97.00
2023-01-09T02:37:29.249Z,97.41
2023-01-09T02:38:29.421Z,97.41
2023-01-09T02:39:29.439Z,96.58
2023-01-09T02:40:29.224Z,97.25
2023-01-09T02:41:29.202Z,97.52
2023-01-09T02:42:29.061Z,97.31
2023-01-09T02:43:29.169Z,97.52
2023-01-09T02:44:29.040Z,97.31
2023-01-09T02:45:29.273Z,97.27
2023-01-09T02:46:29.029Z,96.54
2023-01-09T02:47:29.419Z,96.44
2023-01-09T02:48:29.008Z,95.71
2023-01-09T02:49:29.168Z,95.40
2023-01-09T02:50:29.128Z,95.86
2023-01-09T02:51:29.280Z,96.48
2023-01-09T02:52:29.035Z,96.94
2023-01-09T02:53:29.076Z,97.45
2023-01-09T02:54:29.059Z,97.77
2023-01-09T02:55:29.052Z,98.08
2023-01-09T02:56:29.129Z,98.81
2023-01-09T02:57:28.923Z,98.19
2023-01-09T02:58:29.018Z,98.08
2023-01-09T02:59:28.908Z,98.29
2023-01-09T03:00:29.000Z,98.55
2023-01-09T03:01:29.049Z,97.83
2023-01-09T03:02:29.079Z,97.52
2023-01-09T03:03:28.916Z,97.62
2023-01-09T03:04:29.084Z,97.41
2023-01-09T03:05:28.852Z,97.31
2023-01-09T03:06:29.040Z,97.00
2023-01-09T03:07:28.869Z,97.47
2023-01-09T03:08:29.019Z,96.79
2023-01-09T03:09:28.849Z,96.58
2023-01-09T03:10:29.001Z,97.10
2023-01-09T03:11:28.873Z,97.62
2023-01-09T03:12:28.837Z,97.58
2023-01-09T03:13:28.844Z,97.27
2023-01-09T03:14:28.708Z,96.95
2023-01-09T03:15:29.029Z,95.87
2023-01-09T03:16:28.771Z,95.61
2023-01-09T03:17:28.923Z,95.87
2023-01-09T03:18:28.782Z,95.61
2023-01-09T03:19:28.865Z,96.02
2023-01-09T03:20:28.788Z,96.23
2023-01-09T03:21:28.893Z,96.50
2023-01-09T03:22:28.691Z,95.56
2023-01-09T03:23:29.000Z,95.29
2023-01-09T03:24:28.756Z,95.25
2023-01-09T03:25:28.790Z,95.36
2023-01-09T03:26:28.761Z,95.67
2023-01-09T03:27:28.775Z,95.46
2023-01-09T03:28:28.773Z,95.67
2023-01-09T03:29:29.622Z,95.25
2023-01-09T03:30:28.744Z,95.29
2023-01-09T03:31:28.753Z,95.87
2023-01-09T03:32:28.730Z,95.19
2023-01-09T03:33:28.601Z,95.98
2023-01-09T03:34:28.750Z,95.46
2023-01-09T03:35:28.560Z,95.25
2023-01-09T03:36:28.772Z,95.87
2023-01-09T03:37:28.580Z,95.93
2023-01-09T03:38:28.650Z,94.58
2023-01-09T03:39:28.640Z,95.00
2023-01-09T03:40:28.621Z,94.68
2023-01-09T03:41:28.572Z,94.48
2023-01-09T03:42:28.753Z,94.17
2023-01-09T03:43:28.604Z,94.27
2023-01-09T03:44:28.551Z,94.68
2023-01-09T03:45:28.697Z,94.06
2023-01-09T03:46:28.445Z,94.17
2023-01-09T03:47:28.651Z,94.27
2023-01-09T03:48:28.421Z,94.37
2023-01-09T03:49:28.555Z,93.65
2023-01-09T03:50:28.503Z,94.94
2023-01-09T03:51:28.567Z,95.00
2023-01-09T03:52:28.490Z,94.84
2023-01-09T03:53:28.517Z,94.73
2023-01-09T03:54:28.461Z,95.20
2023-01-09T03:55:28.506Z,94.68
2023-01-09T03:56:28.430Z,94.84
2023-01-09T03:57:28.562Z,95.36
2023-01-09T03:58:28.431Z,95.36
2023-01-09T03:59:28.531Z,95.77
2023-01-09T04:00:28.431Z,95.98
2023-01-09T04:01:28.420Z,95.83
2023-01-09T04:02:28.498Z,95.46
2023-01-09T04:03:28.211Z,95.56
2023-01-09T04:04:28.461Z,95.46
2023-01-09T04:05:28.262Z,95.93
2023-01-09T04:06:28.512Z,96.24
2023-01-09T04:07:28.221Z,95.93
2023-01-09T04:08:28.311Z,95.00
2023-01-09T04:09:28.222Z,94.79
2023-01-09T04:10:28.313Z,94.89
2023-01-09T04:11:28.290Z,95.10
2023-01-09T04:12:28.288Z,95.62
2023-01-09T04:13:28.303Z,96.66
2023-01-09T04:14:28.071Z,96.97
2023-01-09T04:15:28.194Z,95.51
2023-01-09T04:16:28.320Z,95.62
2023-01-09T04:17:28.239Z,95.83
2023-01-09T04:18:28.111Z,96.03
2023-01-09T04:19:28.334Z,95.72
2023-01-09T04:20:28.122Z,95.72
2023-01-09T04:21:28.380Z,95.83
2023-01-09T04:22:28.189Z,95.83
2023-01-09T04:23:28.711Z,95.99
2023-01-09T04:24:28.468Z,95.41
2023-01-09T04:25:28.161Z,95.72
2023-01-09T04:26:28.118Z,95.51
2023-01-09T04:27:28.161Z,96.55
2023-01-09T04:28:28.100Z,97.17
2023-01-09T04:29:27.902Z,97.17
2023-01-09T04:30:28.244Z,96.66
2023-01-09T04:31:27.937Z,95.72
2023-01-09T04:32:28.171Z,96.24
2023-01-09T04:33:28.072Z,96.24
2023-01-09T04:34:28.201Z,96.03
2023-01-09T04:35:27.965Z,96.66
2023-01-09T04:36:28.071Z,96.55
2023-01-09T04:37:27.952Z,96.45
2023-01-09T04:38:28.092Z,95.83
2023-01-09T04:39:27.916Z,96.55
2023-01-09T04:40:28.173Z,97.07
2023-01-09T04:41:27.893Z,96.86
2023-01-09T04:42:27.991Z,97.17
2023-01-09T04:43:27.984Z,96.61
2023-01-09T04:44:27.901Z,96.09
2023-01-09T04:45:27.927Z,96.14
2023-01-09T04:46:27.790Z,96.14
2023-01-09T04:47:27.911Z,96.14
2023-01-09T04:48:28.136Z,96.41
2023-01-09T04:49:27.930Z,96.09
2023-01-09T04:50:27.734Z,95.89
2023-01-09T04:51:27.929Z,95.57
2023-01-09T04:52:27.921Z,95.06
2023-01-09T04:53:27.892Z,95.16
2023-01-09T04:54:27.775Z,95.26
2023-01-09T04:55:27.861Z,95.37
2023-01-09T04:56:27.805Z,95.06
2023-01-09T04:57:27.845Z,95.26
2023-01-09T04:58:28.001Z,95.57
2023-01-09T04:59:28.157Z,95.57
2023-01-09T05:00:27.775Z,95.78
2023-01-09T05:01:27.705Z,95.89
2023-01-09T05:02:27.762Z,95.68
2023-01-09T05:03:27.659Z,95.47
2023-01-09T05:04:27.899Z,96.09
2023-01-09T05:05:27.682Z,95.68
2023-01-09T05:06:27.751Z,95.68
2023-01-09T05:07:27.598Z,95.37
2023-01-09T05:08:27.728Z,95.57
2023-01-09T05:09:27.626Z,95.32
2023-01-09T05:10:27.763Z,95.64
2023-01-09T05:11:27.550Z,95.22
2023-01-09T05:12:27.721Z,95.01
2023-01-09T05:13:27.621Z,94.91
2023-01-09T05:14:27.803Z,94.91
2023-01-09T05:15:27.662Z,94.81
2023-01-09T05:16:27.479Z,94.81
2023-01-09T05:17:27.602Z,94.81
2023-01-09T05:18:27.430Z,94.49
2023-01-09T05:19:27.632Z,94.49
2023-01-09T05:20:27.550Z,94.60
2023-01-09T05:21:27.550Z,94.49
2023-01-09T05:22:27.420Z,94.60
2023-01-09T05:23:27.724Z,94.60
2023-01-09T05:24:27.453Z,94.81
2023-01-09T05:25:27.560Z,94.60
2023-01-09T05:26:27.496Z,94.81
2023-01-09T05:27:27.655Z,95.22
2023-01-09T05:28:27.585Z,95.12
2023-01-09T05:29:27.542Z,95.01
2023-01-09T05:30:27.487Z,95.01
2023-01-09T05:31:27.452Z,94.81
2023-01-09T05:32:27.479Z,94.81
2023-01-09T05:33:27.295Z,94.60
2023-01-09T05:34:27.527Z,94.70
2023-01-09T05:35:27.250Z,95.01
2023-01-09T05:36:27.453Z,94.91
2023-01-09T05:37:27.365Z,94.91
2023-01-09T05:38:27.543Z,94.91
2023-01-09T05:39:27.290Z,94.81
2023-01-09T05:40:32.340Z,94.81
2023-01-09T05:41:27.327Z,94.91
2023-01-09T05:42:27.519Z,95.12
2023-01-09T05:43:27.391Z,95.01
2023-01-09T05:44:27.341Z,94.39
2023-01-09T05:45:27.385Z,94.39
2023-01-09T05:46:27.228Z,94.39
2023-01-09T05:47:27.294Z,94.18
2023-01-09T05:48:27.180Z,94.08
2023-01-09T05:49:27.302Z,94.14
2023-01-09T05:50:27.344Z,93.77
2023-01-09T05:51:27.338Z,94.81
2023-01-09T05:52:27.155Z,94.39
2023-01-09T05:53:27.403Z,94.70
2023-01-09T05:54:27.201Z,95.28
2023-01-09T05:55:27.193Z,94.66
2023-01-09T05:56:27.221Z,93.73
2023-01-09T05:57:27.395Z,94.04
2023-01-09T05:58:27.118Z,94.35
2023-01-09T05:59:27.273Z,93.62
2023-01-09T06:00:27.176Z,94.04
2023-01-09T06:01:27.061Z,94.10
2023-01-09T06:02:27.217Z,93.68
2023-01-09T06:03:26.973Z,93.27
2023-01-09T06:04:27.190Z,93.27
2023-01-09T06:05:27.023Z,92.55
2023-01-09T06:06:27.152Z,92.34
2023-01-09T06:07:27.002Z,92.13
2023-01-09T06:08:27.090Z,92.65
2023-01-09T06:09:27.652Z,93.06
2023-01-09T06:10:27.072Z,93.37
2023-01-09T06:11:27.010Z,93.37
2023-01-09T06:12:27.040Z,93.68
2023-01-09T06:13:27.221Z,93.06
2023-01-09T06:14:27.039Z,93.54
2023-01-09T06:15:27.023Z,93.74
2023-01-09T06:16:27.199Z,93.60
2023-01-09T06:17:27.315Z,92.11
2023-01-09T06:18:26.754Z,90.25
2023-01-09T06:19:26.971Z,90.19
2023-01-09T06:20:26.863Z,90.91
2023-01-09T06:21:27.012Z,90.84
2023-01-09T06:22:27.222Z,91.88
2023-01-09T06:23:26.960Z,91.99
2023-01-09T06:24:26.859Z,92.30
2023-01-09T06:25:27.035Z,92.30
2023-01-09T06:26:26.890Z,92.40
2023-01-09T06:27:27.039Z,92.19
2023-01-09T06:28:26.810Z,92.19
2023-01-09T06:29:26.892Z,92.50
2023-01-09T06:30:26.801Z,91.16
2023-01-09T06:31:26.898Z,92.09
2023-01-09T06:32:26.859Z,92.46
2023-01-09T06:33:26.633Z,92.11
2023-01-09T06:34:26.972Z,90.66
2023-01-09T06:35:26.674Z,90.66
2023-01-09T06:36:26.886Z,90.39
2023-01-09T06:37:26.701Z,90.19
2023-01-09T06:38:26.795Z,91.84
2023-01-09T06:39:26.736Z,91.32
2023-01-09T06:40:26.961Z,90.19
2023-01-09T06:41:26.706Z,90.91
2023-01-09T06:42:26.840Z,91.84
2023-01-09T06:43:26.872Z,90.77
2023-01-09T06:44:26.732Z,90.04
2023-01-09T06:45:26.638Z,90.45
2023-01-09T06:46:26.762Z,90.56
2023-01-09T06:47:26.632Z,90.45
2023-01-09T06:48:26.552Z,90.87
2023-01-09T06:49:26.687Z,89.94
2023-01-09T06:50:26.541Z,90.00
2023-01-09T06:51:26.644Z,90.00
2023-01-09T06:52:26.461Z,88.07
2023-01-09T06:53:26.662Z,89.32
2023-01-09T06:54:28.664Z,90.04
2023-01-09T06:55:26.578Z,90.35
2023-01-09T06:56:26.541Z,89.73
2023-01-09T06:57:26.713Z,89.94
2023-01-09T06:58:26.460Z,89.83
2023-01-09T06:59:26.617Z,89.94
2023-01-09T07:00:26.560Z,90.66
2023-01-09T07:01:26.643Z,90.97
2023-01-09T07:02:26.449Z,90.56
2023-01-09T07:03:26.465Z,90.04
2023-01-09T07:04:26.629Z,89.83
2023-01-09T07:05:26.404Z,90.14
2023-01-09T07:06:26.533Z,89.73
2023-01-09T07:07:26.591Z,90.56
2023-01-09T07:08:26.520Z,90.87
2023-01-09T07:09:26.324Z,90.14
2023-01-09T07:10:26.662Z,89.62
2023-01-09T07:11:26.371Z,90.39
2023-01-09T07:12:26.523Z,91.94
2023-01-09T07:13:26.370Z,92.36
2023-01-09T07:14:26.441Z,92.57
2023-01-09T07:15:26.411Z,91.17
2023-01-09T07:16:26.359Z,90.80
2023-01-09T07:17:26.321Z,91.42
2023-01-09T07:18:26.201Z,91.11
2023-01-09T07:19:26.352Z,92.15
2023-01-09T07:20:26.376Z,91.53
2023-01-09T07:21:26.344Z,91.78
2023-01-09T07:22:26.164Z,91.99
2023-01-09T07:23:26.368Z,92.09
2023-01-09T07:24:26.246Z,91.99
2023-01-09T07:25:26.355Z,93.02
2023-01-09T07:26:26.261Z,91.78
2023-01-09T07:27:26.736Z,91.88
2023-01-09T07:28:26.146Z,92.61
2023-01-09T07:29:26.287Z,93.64
2023-01-09T07:30:26.267Z,92.61
2023-01-09T07:31:26.519Z,92.30
2023-01-09T07:32:26.168Z,92.91
2023-01-09T07:33:27.109Z,92.30
2023-01-09T07:34:26.149Z,92.09
2023-01-09T07:35:26.188Z,92.50
2023-01-09T07:36:26.125Z,92.50
2023-01-09T07:37:26.025Z,93.08
2023-01-09T07:38:26.265Z,92.36
2023-01-09T07:39:26.051Z,92.15
2023-01-09T07:40:26.278Z,92.46
2023-01-09T07:41:26.106Z,92.00
2023-01-09T07:42:26.180Z,91.49
2023-01-09T07:43:26.132Z,91.69
2023-01-09T07:44:26.172Z,91.69
2023-01-09T07:45:26.018Z,91.07
2023-01-09T07:46:26.841Z,91.17
2023-01-09T07:47:26.065Z,91.63
2023-01-09T07:48:26.045Z,91.74
2023-01-09T07:49:26.898Z,92.36
2023-01-09T07:50:25.980Z,92.15
2023-01-09T07:51:26.096Z,91.80
2023-01-09T07:52:25.953Z,91.42
2023-01-09T07:53:26.036Z,91.94
2023-01-09T07:54:25.875Z,91.22
2023-01-09T07:55:25.995Z,92.05
2023-01-09T07:56:26.085Z,92.81
2023-01-09T07:57:25.965Z,93.23
2023-01-09T07:58:25.865Z,93.29
2023-01-09T07:59:25.975Z,93.08
2023-01-09T08:00:25.875Z,92.67
2023-01-09T08:01:26.104Z,92.21
2023-01-09T08:02:26.014Z,91.69
2023-01-09T08:03:25.707Z,91.59
2023-01-09T08:04:26.144Z,90.45
2023-01-09T08:05:25.745Z,91.28
2023-01-09T08:06:25.938Z,91.69
2023-01-09T08:07:25.715Z,91.07
2023-01-09T08:08:25.929Z,92.00
2023-01-09T08:09:25.727Z,91.38
2023-01-09T08:10:25.797Z,91.49
2023-01-09T08:11:25.668Z,91.49
2023-01-09T08:12:25.898Z,91.17
2023-01-09T08:13:25.736Z,91.38
2023-01-09T08:14:25.802Z,91.38
2023-01-09T08:15:25.727Z,90.77
2023-01-09T08:16:25.721Z,91.07
2023-01-09T08:17:26.624Z,91.63
2023-01-09T08:18:25.606Z,92.15
2023-01-09T08:19:25.835Z,92.67
2023-01-09T08:20:25.538Z,93.12
2023-01-09T08:21:25.704Z,93.54
2023-01-09T08:22:25.557Z,93.74
2023-01-09T08:23:25.740Z,93.85
2023-01-09T08:24:25.485Z,93.85
2023-01-09T08:25:25.674Z,93.33
2023-01-09T08:26:25.516Z,93.43
2023-01-09T08:27:25.666Z,93.02
2023-01-09T08:28:25.678Z,92.91
2023-01-09T08:29:25.879Z,93.99
2023-01-09T08:30:25.568Z,94.31
2023-01-09T08:31:25.801Z,94.82
2023-01-09T08:32:25.531Z,94.57
2023-01-09T08:33:25.409Z,94.47
2023-01-09T08:34:25.576Z,94.78
2023-01-09T08:35:25.421Z,94.57
2023-01-09T08:36:25.547Z,94.37
2023-01-09T08:37:25.475Z,94.26
2023-01-09T08:38:25.526Z,94.12
2023-01-09T08:39:25.380Z,94.12
2023-01-09T08:40:25.542Z,93.18
2023-01-09T08:41:25.491Z,93.08
2023-01-09T08:42:25.513Z,92.97
2023-01-09T08:43:25.424Z,93.29
2023-01-09T08:44:25.516Z,93.95
2023-01-09T08:45:25.475Z,93.64
2023-01-09T08:46:25.484Z,93.85
2023-01-09T08:47:25.560Z,93.95
2023-01-09T08:48:25.269Z,94.57
2023-01-09T08:49:25.430Z,94.37
2023-01-09T08:50:25.250Z,93.95
2023-01-09T08:51:56.495Z,93.23
2023-01-09T08:52:57.056Z,93.80
2023-01-09T08:53:57.190Z,94.01
2023-01-09T08:54:55.937Z,93.95
2023-01-09T09:51:52.471Z,91.73
2023-01-09T09:52:54.040Z,92.76
2023-01-09T09:53:55.376Z,92.97
2023-01-09T09:54:54.084Z,92.46
2023-01-09T09:55:54.191Z,92.46
2023-01-09T09:56:54.995Z,93.13
2023-01-09T09:57:54.315Z,92.72
2023-01-09T09:58:54.016Z,92.82
2023-01-09T09:59:54.196Z,92.66
2023-01-09T10:00:54.107Z,93.75
2023-01-09T10:01:54.230Z,93.44
2023-01-09T10:02:54.058Z,93.13
2023-01-09T10:03:54.222Z,92.93
2023-01-09T10:04:53.987Z,93.65
2023-01-09T10:06:55.611Z,93.85
2023-01-09T10:07:54.472Z,92.72
2023-01-09T10:08:54.342Z,93.44
2023-01-09T10:09:55.563Z,93.85
2023-01-09T10:10:55.307Z,92.93
2023-01-09T10:11:54.404Z,93.75
2023-01-09T10:12:55.207Z,93.65
2023-01-09T10:13:54.486Z,92.99
2023-01-09T10:14:54.384Z,93.09
2023-01-09T10:15:54.340Z,92.78
2023-01-09T10:16:54.446Z,93.60
2023-01-09T10:17:54.173Z,92.93
2023-01-09T10:18:54.363Z,92.82
2023-01-09T10:19:54.473Z,93.34
2023-01-09T10:20:54.377Z,93.65
2023-01-09T10:21:54.155Z,92.99
2023-01-09T10:22:54.436Z,92.68
2023-01-09T10:23:54.193Z,92.37
2023-01-09T10:24:55.154Z,92.27
2023-01-09T10:25:54.213Z,92.61
2023-01-09T10:26:54.270Z,93.13
2023-01-09T10:27:54.170Z,93.60
2023-01-09T10:28:54.224Z,92.06
2023-01-09T10:29:54.175Z,92.57
2023-01-09T10:30:54.083Z,92.37
2023-01-09T10:31:54.193Z,91.85
2023-01-09T10:32:55.029Z,92.16
2023-01-09T10:33:54.170Z,92.27
2023-01-09T10:34:54.025Z,92.37
2023-01-09T10:35:54.212Z,92.16
2023-01-09T10:36:54.077Z,92.88
2023-01-09T10:37:54.301Z,93.50
2023-01-09T10:38:54.048Z,92.99
2023-01-09T10:39:54.278Z,92.68
2023-01-09T10:40:54.026Z,93.30
2023-01-09T10:41:54.828Z,93.13
2023-01-09T10:42:54.463Z,93.34
2023-01-09T10:43:54.461Z,93.40
2023-01-09T10:44:54.311Z,92.99
2023-01-09T10:45:54.412Z,93.05
2023-01-09T10:46:55.060Z,93.19
2023-01-09T10:47:53.948Z,93.71
2023-01-09T10:48:54.181Z,93.60
2023-01-09T10:49:53.939Z,93.05
2023-01-09T10:50:54.021Z,93.35
2023-01-09T10:51:53.851Z,92.84
2023-01-09T10:52:54.017Z,92.78
2023-01-09T10:53:54.004Z,93.05
2023-01-09T10:54:55.379Z,93.30
2023-01-09T10:55:53.913Z,93.40
2023-01-09T10:56:53.942Z,92.99
2023-01-09T10:57:53.871Z,93.60
2023-01-09T10:58:54.218Z,93.60
2023-01-09T10:59:53.919Z,92.74
2023-01-09T11:00:53.838Z,93.66
2023-01-09T11:01:53.891Z,93.15
2023-01-09T11:02:53.692Z,92.63
2023-01-09T11:03:53.843Z,92.84
2023-01-09T11:04:53.722Z,92.99
2023-01-09T11:05:54.019Z,93.35
2023-01-09T11:06:53.683Z,93.15
2023-01-09T11:07:53.019Z,92.99
2023-01-09T11:08:53.678Z,92.63
2023-01-09T11:09:53.971Z,92.53
2023-01-09T11:10:53.808Z,92.53
2023-01-09T11:11:53.900Z,92.94
2023-01-09T11:12:53.669Z,92.18
2023-01-09T11:13:53.711Z,91.36
2023-01-09T11:14:53.665Z,92.43
2023-01-09T11:15:54.817Z,92.18
2023-01-09T11:16:54.900Z,92.59
2023-01-09T11:17:53.500Z,92.49
2023-01-09T11:18:53.989Z,91.66
2023-01-09T11:19:53.483Z,91.56
2023-01-09T11:21:56.253Z,92.22
2023-01-09T11:22:55.924Z,92.74
2023-01-09T11:23:57.703Z,92.74
2023-01-09T11:24:56.514Z,93.66
2023-01-09T11:25:56.393Z,93.35
2023-01-09T11:26:56.484Z,92.94
2023-01-09T11:27:56.422Z,93.05
2023-01-09T11:28:56.293Z,93.46
2023-01-09T11:29:56.400Z,92.43
2023-01-09T11:30:55.640Z,93.15
2023-01-09T11:31:56.446Z,93.52
2023-01-09T11:32:56.296Z,92.80
2023-01-09T11:34:18.723Z,91.87
2023-01-09T11:34:55.593Z,93.01
2023-01-09T11:36:18.457Z,92.38
2023-01-09T11:36:55.645Z,93.21
2023-01-09T11:38:17.904Z,91.77
2023-01-09T11:38:56.268Z,91.77
2023-01-09T11:40:18.080Z,92.08
2023-01-09T11:40:56.290Z,92.18
2023-01-09T11:42:18.853Z,92.76
2023-01-09T11:43:04.291Z,91.83
2023-01-09T11:44:17.814Z,92.14
2023-01-09T11:44:56.197Z,91.47
2023-01-09T11:46:17.828Z,91.06
2023-01-09T11:46:56.882Z,90.51
2023-01-09T11:48:19.379Z,90.30
2023-01-09T11:48:56.278Z,89.79
2023-01-09T11:50:17.845Z,90.00
2023-01-09T11:50:56.275Z,89.07
2023-01-09T11:52:18.134Z,89.17
2023-01-09T11:52:56.336Z,89.07
2023-01-09T11:54:18.138Z,88.96
2023-01-09T11:54:56.153Z,89.58
2023-01-09T11:55:56.117Z,88.66
2023-01-09T11:57:18.181Z,88.90
2023-01-09T11:57:57.139Z,89.11
2023-01-09T11:59:25.162Z,89.48
2023-01-09T11:59:56.773Z,88.96
2023-01-09T12:00:55.944Z,88.14
2023-01-09T12:02:17.703Z,88.14
2023-01-09T12:02:55.344Z,88.10
2023-01-09T12:05:58.531Z,86.97
2023-01-09T12:06:59.771Z,87.63
2023-01-09T12:08:00.792Z,88.20
2023-01-09T12:08:59.994Z,88.45
2023-01-09T12:10:21.584Z,88.56
2023-01-09T12:10:59.779Z,88.45
2023-01-09T12:12:21.402Z,88.35
2023-01-09T12:12:59.721Z,88.14
2023-01-09T12:13:59.291Z,88.56
2023-01-09T12:15:22.236Z,88.35
2023-01-09T12:15:59.632Z,88.66
2023-01-09T12:18:09.437Z,88.24
2023-01-09T12:21:12.991Z,88.35
2023-01-09T12:22:13.602Z,88.04
2023-01-09T12:22:52.072Z,87.84
2023-01-09T12:24:13.160Z,87.73
2023-01-09T12:25:13.989Z,87.84
2023-01-09T12:25:52.255Z,87.69
2023-01-09T12:28:03.151Z,87.38
2023-01-09T12:30:12.039Z,87.28
2023-01-09T12:31:13.838Z,87.69
2023-01-09T12:33:24.373Z,87.18
2023-01-09T12:35:34.460Z,87.18
2023-01-09T12:36:35.378Z,87.28
2023-01-09T12:38:46.504Z,87.42
2023-01-09T12:40:57.245Z,88.35
2023-01-09T12:41:57.033Z,88.35
2023-01-09T12:43:18.823Z,88.45
2023-01-09T12:44:34.089Z,89.07
2023-01-09T12:44:57.731Z,88.35
2023-01-09T12:47:06.783Z,89.11
2023-01-09T12:49:17.767Z,89.07
2023-01-09T12:50:17.812Z,88.04
2023-01-09T12:52:28.432Z,88.24
2023-01-09T12:55:50.863Z,88.56
2023-01-09T12:56:30.410Z,88.39
2023-01-09T12:57:30.506Z,88.45
2023-01-09T12:59:40.501Z,88.24
2023-01-09T13:01:51.668Z,89.07
2023-01-09T13:03:00.390Z,88.56
2023-01-09T13:05:02.373Z,88.76
2023-01-09T13:07:12.810Z,88.45
2023-01-09T13:08:13.461Z,88.49
2023-01-09T13:11:32.689Z,88.66
2023-01-09T13:13:27.936Z,88.14
2023-01-09T13:14:29.069Z,87.94
2023-01-09T13:15:28.564Z,88.35
2023-01-09T13:16:07.079Z,88.80
2023-01-09T13:18:16.954Z,88.66
2023-01-09T13:20:27.635Z,88.39
2023-01-09T13:21:28.279Z,88.59
2023-01-09T13:22:28.215Z,88.49
2023-01-09T13:23:28.363Z,88.18
2023-01-09T13:24:28.103Z,88.49
2023-01-09T13:25:28.265Z,88.80
2023-01-09T13:26:28.072Z,88.80
2023-01-09T13:27:28.248Z,88.49
2023-01-09T13:28:28.174Z,88.35
2023-01-09T13:29:29.474Z,87.94
2023-01-09T13:30:28.138Z,88.04
2023-01-09T13:31:28.259Z,87.63
2023-01-09T13:32:28.113Z,86.91
2023-01-09T13:33:28.962Z,87.42
2023-01-09T13:34:28.177Z,87.32
2023-01-09T13:35:27.904Z,87.42
2023-01-09T13:36:28.117Z,87.42
2023-01-09T13:37:27.976Z,87.52
2023-01-09T13:38:28.041Z,87.94
2023-01-09T13:39:28.039Z,87.63
2023-01-09T13:40:28.060Z,87.73
2023-01-09T13:41:29.313Z,87.42
2023-01-09T13:42:28.029Z,86.91
2023-01-09T13:43:27.891Z,86.60
2023-01-09T13:44:28.059Z,86.80
2023-01-09T13:45:27.903Z,86.80
2023-01-09T13:46:30.176Z,86.97
2023-01-09T13:47:29.229Z,87.01
2023-01-09T13:48:27.800Z,86.91
2023-01-09T13:49:28.947Z,87.12
2023-01-09T13:50:27.908Z,87.84
2023-01-09T13:51:27.960Z,87.42
2023-01-09T13:52:27.907Z,87.22
2023-01-09T13:53:27.969Z,86.80
2023-01-09T13:54:27.858Z,87.18
2023-01-09T13:55:27.949Z,86.77
2023-01-09T13:56:27.897Z,86.46
2023-01-09T13:57:27.972Z,87.22
2023-01-09T13:58:27.869Z,87.12
2023-01-09T13:59:27.857Z,87.63
2023-01-09T14:00:27.811Z,86.80
2023-01-09T14:01:27.862Z,86.80
2023-01-09T14:02:27.847Z,87.32
2023-01-09T14:03:27.639Z,87.84
2023-01-09T14:04:27.833Z,85.63
2023-01-09T14:05:27.651Z,85.63
2023-01-09T14:06:27.742Z,85.94
2023-01-09T14:07:27.616Z,85.63
2023-01-09T14:08:27.848Z,86.15
2023-01-09T14:10:12.708Z,86.29
2023-01-09T14:10:58.491Z,86.35
2023-01-09T14:11:59.331Z,86.70
2023-01-09T14:13:00.876Z,86.40
2023-01-09T14:14:27.636Z,86.91
2023-01-09T14:15:29.402Z,86.91
2023-01-09T14:18:36.459Z,86.35
2023-01-09T14:19:21.527Z,86.29
2023-01-09T14:20:21.694Z,86.60
2023-01-09T14:22:25.618Z,86.46